Hlavní strana
METAR-TAF:

METAR-TAF

Letiště :

Oujda, Maroko

zeměpisná šířka: 34-47N, zeměpisná délka: 001-56W, výška: 468 m

Aktuální stav počasí

Zpráva byla vytvořena před 40 minutami, v 04:30 UTC
Severní vítr 4 kt, proměnlivý mezi západním a severovýchodním
Teplota 13°C
Vlhkost vzduchu 100%
Tlak 1023 hPa
Viditelnost: 2000 m
Zataženo ve výšce 400 ft
kouřmo

METAR: GMFO 070430Z 35004KT 280V040 2000 BR OVC004 13/13 Q1023 NOSIG

Čas: 06:10 (05:10 UTC)

Předpověď počasí

Zpráva byla vytvořena před 6 hodinami a 10 minutami, v 23:00 UTC
Předpověď platná od 07 v 00 UTC do 08 v 06 UTC
Jihozápadní vítr 4 kt
Viditelnost: 8000 m
Zataženo ve výšce 800 ft
Pravděpodobnost 30% :
Dočasný
od 07 v 01 UTC do 07 v 06 UTC
vítr z různých směrů 1 kt
Viditelnost: 3000 m
Skoro jasno ve výšce 300 ft
Oblačno až skoro zataženo ve výšce 1000 ft
kouřmo
Změna
od 07 v 14 UTC do 07 v 18 UTC
Severní vítr 12 kt

TAF: GMFO 062300Z 0700/0806 23004KT 8000 OVC008 PROB30 TEMPO 0701/0706 VRB01KT 3000 BR FEW003 BKN010 BECMG 0714/0718 01012KT

Stav a předpovědi počasí z více než 4 000 letišť (zprávy METAR a TAF).

Červené a žluté tečky na mapě představují dostupné meteorologické stanice.

Když kurzor umístíte na tečku, zobrazí se název stanice.

Pak kliknutím zobrazíte stav a předpověď počasí.

Chcete-li změnit mapu, kliknutím na zelené tlačítko se znaménkem +mapu přiblížíte, kliknutím na zelené tlačítko se znaménkem – mapu oddálíte a kliknutím na zelené šipky přejdete na sousední mapy.


METAR-TAF: